sensor_id;sensor_type;location;lat;lon;timestamp;temperature;humidity
11818;DHT22;5966;52.402;5.322;2022-07-10T00:01:17;16.30;99.90
11818;DHT22;5966;52.402;5.322;2022-07-10T00:03:48;16.30;99.90
11818;DHT22;5966;52.402;5.322;2022-07-10T00:06:18;16.30;99.90
11818;DHT22;5966;52.402;5.322;2022-07-10T00:08:46;16.30;99.90
11818;DHT22;5966;52.402;5.322;2022-07-10T00:11:15;16.20;99.90
11818;DHT22;5966;52.402;5.322;2022-07-10T00:13:45;16.20;99.90
11818;DHT22;5966;52.402;5.322;2022-07-10T00:16:13;16.20;99.90
11818;DHT22;5966;52.402;5.322;2022-07-10T00:18:42;16.20;99.90
11818;DHT22;5966;52.402;5.322;2022-07-10T00:21:18;16.20;99.90
11818;DHT22;5966;52.402;5.322;2022-07-10T00:23:47;16.20;99.90
11818;DHT22;5966;52.402;5.322;2022-07-10T00:26:15;16.20;99.90
11818;DHT22;5966;52.402;5.322;2022-07-10T00:28:43;16.30;99.90
11818;DHT22;5966;52.402;5.322;2022-07-10T00:31:14;16.30;99.90
11818;DHT22;5966;52.402;5.322;2022-07-10T00:33:44;16.30;99.90
11818;DHT22;5966;52.402;5.322;2022-07-10T00:36:12;16.30;99.90
11818;DHT22;5966;52.402;5.322;2022-07-10T00:38:42;16.30;99.90
11818;DHT22;5966;52.402;5.322;2022-07-10T00:41:10;16.30;99.90
11818;DHT22;5966;52.402;5.322;2022-07-10T00:43:54;16.30;99.90
11818;DHT22;5966;52.402;5.322;2022-07-10T00:46:23;16.30;99.90
11818;DHT22;5966;52.402;5.322;2022-07-10T00:48:52;16.30;99.90
11818;DHT22;5966;52.402;5.322;2022-07-10T00:51:25;16.30;99.90
11818;DHT22;5966;52.402;5.322;2022-07-10T00:53:56;16.30;99.90
11818;DHT22;5966;52.402;5.322;2022-07-10T00:56:26;16.30;99.90
11818;DHT22;5966;52.402;5.322;2022-07-10T00:58:56;16.30;99.90
11818;DHT22;5966;52.402;5.322;2022-07-10T01:01:25;16.30;99.90
11818;DHT22;5966;52.402;5.322;2022-07-10T01:03:53;16.20;99.90
11818;DHT22;5966;52.402;5.322;2022-07-10T01:06:24;16.30;99.90
11818;DHT22;5966;52.402;5.322;2022-07-10T01:08:55;16.30;99.90
11818;DHT22;5966;52.402;5.322;2022-07-10T01:11:24;16.30;99.90
11818;DHT22;5966;52.402;5.322;2022-07-10T01:13:52;16.30;99.90
11818;DHT22;5966;52.402;5.322;2022-07-10T01:16:21;16.30;99.90
11818;DHT22;5966;52.402;5.322;2022-07-10T01:18:53;16.30;99.90
11818;DHT22;5966;52.402;5.322;2022-07-10T01:21:27;16.30;99.90
11818;DHT22;5966;52.402;5.322;2022-07-10T01:23:55;16.30;99.90
11818;DHT22;5966;52.402;5.322;2022-07-10T01:26:24;16.30;99.90
11818;DHT22;5966;52.402;5.322;2022-07-10T01:28:53;16.30;99.90
11818;DHT22;5966;52.402;5.322;2022-07-10T01:31:25;16.30;99.90
11818;DHT22;5966;52.402;5.322;2022-07-10T01:33:54;16.30;99.90
11818;DHT22;5966;52.402;5.322;2022-07-10T01:36:23;16.30;99.90
11818;DHT22;5966;52.402;5.322;2022-07-10T01:38:56;16.30;99.90
11818;DHT22;5966;52.402;5.322;2022-07-10T01:41:25;16.20;99.90
11818;DHT22;5966;52.402;5.322;2022-07-10T01:43:53;16.20;99.90
11818;DHT22;5966;52.402;5.322;2022-07-10T01:46:22;16.20;99.90
11818;DHT22;5966;52.402;5.322;2022-07-10T01:48:51;16.20;99.90
11818;DHT22;5966;52.402;5.322;2022-07-10T01:51:19;16.20;99.90
11818;DHT22;5966;52.402;5.322;2022-07-10T01:53:50;16.20;99.90
11818;DHT22;5966;52.402;5.322;2022-07-10T01:56:19;16.20;99.90
11818;DHT22;5966;52.402;5.322;2022-07-10T01:58:50;16.20;99.90
11818;DHT22;5966;52.402;5.322;2022-07-10T02:01:19;16.20;99.90
11818;DHT22;5966;52.402;5.322;2022-07-10T02:03:47;16.20;99.90
11818;DHT22;5966;52.402;5.322;2022-07-10T02:06:36;16.30;99.90
11818;DHT22;5966;52.402;5.322;2022-07-10T02:09:07;16.30;99.90
11818;DHT22;5966;52.402;5.322;2022-07-10T02:11:40;16.30;99.90
11818;DHT22;5966;52.402;5.322;2022-07-10T02:14:08;16.30;99.90
11818;DHT22;5966;52.402;5.322;2022-07-10T02:16:37;16.30;99.90
11818;DHT22;5966;52.402;5.322;2022-07-10T02:19:08;16.30;99.90
11818;DHT22;5966;52.402;5.322;2022-07-10T02:21:36;16.30;99.90
11818;DHT22;5966;52.402;5.322;2022-07-10T02:24:05;16.30;99.90
11818;DHT22;5966;52.402;5.322;2022-07-10T02:26:34;16.30;99.90
11818;DHT22;5966;52.402;5.322;2022-07-10T02:29:04;16.30;99.90
11818;DHT22;5966;52.402;5.322;2022-07-10T02:31:32;16.30;99.90
11818;DHT22;5966;52.402;5.322;2022-07-10T02:34:07;16.30;99.90
11818;DHT22;5966;52.402;5.322;2022-07-10T02:36:36;16.20;99.90
11818;DHT22;5966;52.402;5.322;2022-07-10T02:39:05;16.20;99.90
11818;DHT22;5966;52.402;5.322;2022-07-10T02:41:34;16.20;99.90
11818;DHT22;5966;52.402;5.322;2022-07-10T02:44:04;16.30;99.90
11818;DHT22;5966;52.402;5.322;2022-07-10T02:46:32;16.30;99.90
11818;DHT22;5966;52.402;5.322;2022-07-10T02:49:02;16.30;99.90
11818;DHT22;5966;52.402;5.322;2022-07-10T02:51:33;16.30;99.90
11818;DHT22;5966;52.402;5.322;2022-07-10T02:54:03;16.30;99.90
11818;DHT22;5966;52.402;5.322;2022-07-10T02:56:32;16.30;99.90
11818;DHT22;5966;52.402;5.322;2022-07-10T02:59:07;16.30;99.90
11818;DHT22;5966;52.402;5.322;2022-07-10T03:01:38;16.30;99.90
11818;DHT22;5966;52.402;5.322;2022-07-10T03:04:10;16.30;99.90
11818;DHT22;5966;52.402;5.322;2022-07-10T03:06:38;16.30;99.90
11818;DHT22;5966;52.402;5.322;2022-07-10T03:09:06;16.30;99.90
11818;DHT22;5966;52.402;5.322;2022-07-10T03:11:34;16.30;99.90
11818;DHT22;5966;52.402;5.322;2022-07-10T03:14:02;16.30;99.90
11818;DHT22;5966;52.402;5.322;2022-07-10T03:16:32;16.30;99.90
11818;DHT22;5966;52.402;5.322;2022-07-10T03:19:00;16.30;99.90
11818;DHT22;5966;52.402;5.322;2022-07-10T03:21:28;16.40;99.90
11818;DHT22;5966;52.402;5.322;2022-07-10T03:23:57;16.40;99.90
11818;DHT22;5966;52.402;5.322;2022-07-10T03:26:25;16.40;99.90
11818;DHT22;5966;52.402;5.322;2022-07-10T03:28:56;16.30;99.90
11818;DHT22;5966;52.402;5.322;2022-07-10T03:31:24;16.20;99.90
11818;DHT22;5966;52.402;5.322;2022-07-10T03:33:53;16.20;99.90
11818;DHT22;5966;52.402;5.322;2022-07-10T03:36:21;16.20;99.90
11818;DHT22;5966;52.402;5.322;2022-07-10T03:38:49;16.20;99.90
11818;DHT22;5966;52.402;5.322;2022-07-10T03:41:17;16.30;99.90
11818;DHT22;5966;52.402;5.322;2022-07-10T03:43:45;16.30;99.90
11818;DHT22;5966;52.402;5.322;2022-07-10T03:46:13;16.30;99.90
11818;DHT22;5966;52.402;5.322;2022-07-10T03:48:42;16.30;99.90
11818;DHT22;5966;52.402;5.322;2022-07-10T03:51:11;16.30;99.90
11818;DHT22;5966;52.402;5.322;2022-07-10T03:53:39;16.30;99.90
11818;DHT22;5966;52.402;5.322;2022-07-10T03:56:07;16.40;99.90
11818;DHT22;5966;52.402;5.322;2022-07-10T03:58:36;16.30;99.90
11818;DHT22;5966;52.402;5.322;2022-07-10T04:01:04;16.30;99.90
11818;DHT22;5966;52.402;5.322;2022-07-10T04:03:32;16.30;99.90
11818;DHT22;5966;52.402;5.322;2022-07-10T04:06:00;16.20;99.90
11818;DHT22;5966;52.402;5.322;2022-07-10T04:08:30;16.20;99.90
11818;DHT22;5966;52.402;5.322;2022-07-10T04:10:57;16.20;99.90
11818;DHT22;5966;52.402;5.322;2022-07-10T04:13:25;16.20;99.90
11818;DHT22;5966;52.402;5.322;2022-07-10T04:15:53;16.20;99.90
11818;DHT22;5966;52.402;5.322;2022-07-10T04:18:21;16.20;99.90
11818;DHT22;5966;52.402;5.322;2022-07-10T04:20:50;16.20;99.90
11818;DHT22;5966;52.402;5.322;2022-07-10T04:23:18;16.20;99.90
11818;DHT22;5966;52.402;5.322;2022-07-10T04:25:47;16.20;99.90
11818;DHT22;5966;52.402;5.322;2022-07-10T04:28:15;16.20;99.90
11818;DHT22;5966;52.402;5.322;2022-07-10T04:30:43;16.20;99.90
11818;DHT22;5966;52.402;5.322;2022-07-10T04:33:11;16.20;99.90
11818;DHT22;5966;52.402;5.322;2022-07-10T04:35:39;16.30;99.90
11818;DHT22;5966;52.402;5.322;2022-07-10T04:38:07;16.30;99.90
11818;DHT22;5966;52.402;5.322;2022-07-10T04:40:35;16.30;99.90
11818;DHT22;5966;52.402;5.322;2022-07-10T04:43:05;16.30;99.90
11818;DHT22;5966;52.402;5.322;2022-07-10T04:45:32;16.30;99.90
11818;DHT22;5966;52.402;5.322;2022-07-10T04:48:00;16.30;99.90
11818;DHT22;5966;52.402;5.322;2022-07-10T04:50:29;16.40;99.90
11818;DHT22;5966;52.402;5.322;2022-07-10T04:52:58;16.40;99.90
11818;DHT22;5966;52.402;5.322;2022-07-10T04:55:27;16.40;99.90
11818;DHT22;5966;52.402;5.322;2022-07-10T04:57:55;16.40;99.90
11818;DHT22;5966;52.402;5.322;2022-07-10T05:00:24;16.40;99.90
11818;DHT22;5966;52.402;5.322;2022-07-10T05:02:52;16.40;99.90
11818;DHT22;5966;52.402;5.322;2022-07-10T05:05:20;16.40;99.90
11818;DHT22;5966;52.402;5.322;2022-07-10T05:07:48;16.40;99.90
11818;DHT22;5966;52.402;5.322;2022-07-10T05:10:17;16.40;99.90
11818;DHT22;5966;52.402;5.322;2022-07-10T05:12:48;16.40;99.90
11818;DHT22;5966;52.402;5.322;2022-07-10T05:15:16;16.30;99.90
11818;DHT22;5966;52.402;5.322;2022-07-10T05:17:45;16.30;99.90
11818;DHT22;5966;52.402;5.322;2022-07-10T05:20:13;16.30;99.90
11818;DHT22;5966;52.402;5.322;2022-07-10T05:22:41;16.30;99.90
11818;DHT22;5966;52.402;5.322;2022-07-10T05:25:09;16.40;99.90
11818;DHT22;5966;52.402;5.322;2022-07-10T05:27:37;16.50;99.90
11818;DHT22;5966;52.402;5.322;2022-07-10T05:30:06;16.50;99.90
11818;DHT22;5966;52.402;5.322;2022-07-10T05:32:36;16.50;99.90
11818;DHT22;5966;52.402;5.322;2022-07-10T05:35:10;16.60;99.90
11818;DHT22;5966;52.402;5.322;2022-07-10T05:37:38;16.60;99.90
11818;DHT22;5966;52.402;5.322;2022-07-10T05:40:08;16.50;99.90
11818;DHT22;5966;52.402;5.322;2022-07-10T05:42:36;16.50;99.90
11818;DHT22;5966;52.402;5.322;2022-07-10T05:45:05;16.50;99.90
11818;DHT22;5966;52.402;5.322;2022-07-10T05:47:33;16.50;99.90
11818;DHT22;5966;52.402;5.322;2022-07-10T05:50:01;16.50;99.90
11818;DHT22;5966;52.402;5.322;2022-07-10T05:52:32;16.50;99.90
11818;DHT22;5966;52.402;5.322;2022-07-10T05:55:00;16.50;99.90
11818;DHT22;5966;52.402;5.322;2022-07-10T05:57:29;16.50;99.90
11818;DHT22;5966;52.402;5.322;2022-07-10T05:59:58;16.50;99.90
11818;DHT22;5966;52.402;5.322;2022-07-10T06:02:26;16.50;99.90
11818;DHT22;5966;52.402;5.322;2022-07-10T06:04:54;16.50;99.90
11818;DHT22;5966;52.402;5.322;2022-07-10T06:07:22;16.40;99.90
11818;DHT22;5966;52.402;5.322;2022-07-10T06:09:52;16.50;99.90
11818;DHT22;5966;52.402;5.322;2022-07-10T06:12:20;16.50;99.90
11818;DHT22;5966;52.402;5.322;2022-07-10T06:14:48;16.50;99.90
11818;DHT22;5966;52.402;5.322;2022-07-10T06:17:16;16.40;99.90
11818;DHT22;5966;52.402;5.322;2022-07-10T06:19:44;16.40;99.90
11818;DHT22;5966;52.402;5.322;2022-07-10T06:22:13;16.40;99.90
11818;DHT22;5966;52.402;5.322;2022-07-10T06:25:03;16.40;99.90
11818;DHT22;5966;52.402;5.322;2022-07-10T06:27:31;16.40;99.90
11818;DHT22;5966;52.402;5.322;2022-07-10T06:30:00;16.40;99.90
11818;DHT22;5966;52.402;5.322;2022-07-10T06:32:28;16.40;99.90
11818;DHT22;5966;52.402;5.322;2022-07-10T06:34:56;16.40;99.90
11818;DHT22;5966;52.402;5.322;2022-07-10T06:37:24;16.40;99.90
11818;DHT22;5966;52.402;5.322;2022-07-10T06:39:52;16.50;99.90
11818;DHT22;5966;52.402;5.322;2022-07-10T06:42:21;16.50;99.90
11818;DHT22;5966;52.402;5.322;2022-07-10T06:44:50;16.50;99.90
11818;DHT22;5966;52.402;5.322;2022-07-10T06:47:18;16.60;99.90
11818;DHT22;5966;52.402;5.322;2022-07-10T06:50:05;16.60;99.90
11818;DHT22;5966;52.402;5.322;2022-07-10T06:52:34;16.70;99.90
11818;DHT22;5966;52.402;5.322;2022-07-10T06:55:03;16.70;99.90
11818;DHT22;5966;52.402;5.322;2022-07-10T06:57:33;16.70;99.90
11818;DHT22;5966;52.402;5.322;2022-07-10T07:00:04;16.70;99.90
11818;DHT22;5966;52.402;5.322;2022-07-10T07:02:33;16.70;99.90
11818;DHT22;5966;52.402;5.322;2022-07-10T07:05:01;16.70;99.90
11818;DHT22;5966;52.402;5.322;2022-07-10T07:07:30;16.70;99.90
11818;DHT22;5966;52.402;5.322;2022-07-10T07:09:57;16.60;99.90
11818;DHT22;5966;52.402;5.322;2022-07-10T07:12:26;16.60;99.90
11818;DHT22;5966;52.402;5.322;2022-07-10T07:14:55;16.60;99.90
11818;DHT22;5966;52.402;5.322;2022-07-10T07:17:23;16.60;99.90
11818;DHT22;5966;52.402;5.322;2022-07-10T07:19:55;16.60;99.90
11818;DHT22;5966;52.402;5.322;2022-07-10T07:22:46;16.70;99.90
11818;DHT22;5966;52.402;5.322;2022-07-10T07:25:33;16.70;99.90
11818;DHT22;5966;52.402;5.322;2022-07-10T07:28:01;16.70;99.90
11818;DHT22;5966;52.402;5.322;2022-07-10T07:30:30;16.80;99.90
11818;DHT22;5966;52.402;5.322;2022-07-10T07:32:58;16.70;99.90
11818;DHT22;5966;52.402;5.322;2022-07-10T07:35:26;16.70;99.90
11818;DHT22;5966;52.402;5.322;2022-07-10T07:37:54;16.80;99.90
11818;DHT22;5966;52.402;5.322;2022-07-10T07:40:23;16.80;99.90
11818;DHT22;5966;52.402;5.322;2022-07-10T07:42:53;16.80;99.90
11818;DHT22;5966;52.402;5.322;2022-07-10T07:45:22;16.90;99.90
11818;DHT22;5966;52.402;5.322;2022-07-10T07:47:53;16.90;99.90
11818;DHT22;5966;52.402;5.322;2022-07-10T07:50:22;17.00;99.90
11818;DHT22;5966;52.402;5.322;2022-07-10T07:52:52;17.00;99.90
11818;DHT22;5966;52.402;5.322;2022-07-10T07:55:21;17.00;99.90
11818;DHT22;5966;52.402;5.322;2022-07-10T07:57:52;17.10;99.90
11818;DHT22;5966;52.402;5.322;2022-07-10T08:00:22;17.10;99.90
11818;DHT22;5966;52.402;5.322;2022-07-10T08:02:52;17.10;99.90
11818;DHT22;5966;52.402;5.322;2022-07-10T08:05:21;17.10;99.90
11818;DHT22;5966;52.402;5.322;2022-07-10T08:07:52;17.10;99.90
11818;DHT22;5966;52.402;5.322;2022-07-10T08:10:21;17.10;99.90
11818;DHT22;5966;52.402;5.322;2022-07-10T08:12:49;17.20;99.90
11818;DHT22;5966;52.402;5.322;2022-07-10T08:15:19;17.30;99.90
11818;DHT22;5966;52.402;5.322;2022-07-10T08:17:52;17.40;99.90
11818;DHT22;5966;52.402;5.322;2022-07-10T08:20:25;17.40;99.90
11818;DHT22;5966;52.402;5.322;2022-07-10T08:22:56;17.50;99.90
11818;DHT22;5966;52.402;5.322;2022-07-10T08:25:26;17.50;99.90
11818;DHT22;5966;52.402;5.322;2022-07-10T08:27:56;17.60;99.90
11818;DHT22;5966;52.402;5.322;2022-07-10T08:30:28;17.60;99.90
11818;DHT22;5966;52.402;5.322;2022-07-10T08:32:57;17.70;99.90
11818;DHT22;5966;52.402;5.322;2022-07-10T08:35:25;17.70;99.90
11818;DHT22;5966;52.402;5.322;2022-07-10T08:37:53;17.80;99.90
11818;DHT22;5966;52.402;5.322;2022-07-10T08:40:22;17.90;99.90
11818;DHT22;5966;52.402;5.322;2022-07-10T08:42:50;18.00;99.90
11818;DHT22;5966;52.402;5.322;2022-07-10T08:45:19;18.00;99.90
11818;DHT22;5966;52.402;5.322;2022-07-10T08:47:47;18.00;99.90
11818;DHT22;5966;52.402;5.322;2022-07-10T08:50:17;18.10;99.90
11818;DHT22;5966;52.402;5.322;2022-07-10T08:52:52;18.10;99.90
11818;DHT22;5966;52.402;5.322;2022-07-10T08:55:25;18.20;99.90
11818;DHT22;5966;52.402;5.322;2022-07-10T08:57:54;18.30;99.90
11818;DHT22;5966;52.402;5.322;2022-07-10T09:00:23;18.30;99.90
11818;DHT22;5966;52.402;5.322;2022-07-10T09:02:53;18.30;99.90
11818;DHT22;5966;52.402;5.322;2022-07-10T09:05:23;18.30;99.90
11818;DHT22;5966;52.402;5.322;2022-07-10T09:07:52;18.20;99.90
11818;DHT22;5966;52.402;5.322;2022-07-10T09:10:23;18.20;99.90
11818;DHT22;5966;52.402;5.322;2022-07-10T09:12:55;18.20;99.90
11818;DHT22;5966;52.402;5.322;2022-07-10T09:15:25;18.30;99.90
11818;DHT22;5966;52.402;5.322;2022-07-10T09:17:55;18.30;99.90
11818;DHT22;5966;52.402;5.322;2022-07-10T09:20:32;18.30;99.90
11818;DHT22;5966;52.402;5.322;2022-07-10T09:23:14;18.30;99.90
11818;DHT22;5966;52.402;5.322;2022-07-10T09:25:43;18.40;99.90
11818;DHT22;5966;52.402;5.322;2022-07-10T09:28:12;18.40;99.90
11818;DHT22;5966;52.402;5.322;2022-07-10T09:30:41;18.40;99.90
11818;DHT22;5966;52.402;5.322;2022-07-10T09:33:26;18.40;99.90
11818;DHT22;5966;52.402;5.322;2022-07-10T09:36:04;18.40;99.90
11818;DHT22;5966;52.402;5.322;2022-07-10T09:38:52;18.40;99.90
11818;DHT22;5966;52.402;5.322;2022-07-10T09:41:24;18.40;99.90
11818;DHT22;5966;52.402;5.322;2022-07-10T09:43:54;18.40;99.90
11818;DHT22;5966;52.402;5.322;2022-07-10T09:46:26;18.40;99.90
11818;DHT22;5966;52.402;5.322;2022-07-10T09:49:09;18.40;99.90
11818;DHT22;5966;52.402;5.322;2022-07-10T09:51:40;18.50;99.90
11818;DHT22;5966;52.402;5.322;2022-07-10T09:54:15;18.60;99.90
11818;DHT22;5966;52.402;5.322;2022-07-10T09:56:46;18.60;99.90
11818;DHT22;5966;52.402;5.322;2022-07-10T09:59:14;18.60;99.90
11818;DHT22;5966;52.402;5.322;2022-07-10T10:01:45;18.70;99.90
11818;DHT22;5966;52.402;5.322;2022-07-10T10:04:15;18.70;99.90
11818;DHT22;5966;52.402;5.322;2022-07-10T10:06:46;18.60;99.90
11818;DHT22;5966;52.402;5.322;2022-07-10T10:09:21;18.60;99.90
11818;DHT22;5966;52.402;5.322;2022-07-10T10:11:54;18.60;99.90
11818;DHT22;5966;52.402;5.322;2022-07-10T10:14:23;18.70;99.90
11818;DHT22;5966;52.402;5.322;2022-07-10T10:16:55;18.70;99.90
11818;DHT22;5966;52.402;5.322;2022-07-10T10:19:25;18.70;99.90
11818;DHT22;5966;52.402;5.322;2022-07-10T10:22:13;18.70;99.90
11818;DHT22;5966;52.402;5.322;2022-07-10T10:24:43;18.60;99.90
11818;DHT22;5966;52.402;5.322;2022-07-10T10:27:14;18.60;99.90
11818;DHT22;5966;52.402;5.322;2022-07-10T10:29:43;18.60;99.90
11818;DHT22;5966;52.402;5.322;2022-07-10T10:32:12;18.50;99.90
11818;DHT22;5966;52.402;5.322;2022-07-10T10:34:41;18.60;99.90
11818;DHT22;5966;52.402;5.322;2022-07-10T10:37:38;18.60;99.90
11818;DHT22;5966;52.402;5.322;2022-07-10T10:40:10;18.80;99.90
11818;DHT22;5966;52.402;5.322;2022-07-10T10:42:39;18.80;99.90
11818;DHT22;5966;52.402;5.322;2022-07-10T10:45:25;18.90;99.90
11818;DHT22;5966;52.402;5.322;2022-07-10T10:47:58;18.90;99.90
11818;DHT22;5966;52.402;5.322;2022-07-10T10:50:47;18.90;99.90
11818;DHT22;5966;52.402;5.322;2022-07-10T10:53:18;18.90;99.90
11818;DHT22;5966;52.402;5.322;2022-07-10T10:56:22;19.00;99.90
11818;DHT22;5966;52.402;5.322;2022-07-10T10:58:50;19.10;99.90
11818;DHT22;5966;52.402;5.322;2022-07-10T11:01:29;19.10;99.90
11818;DHT22;5966;52.402;5.322;2022-07-10T11:04:15;19.20;99.90
11818;DHT22;5966;52.402;5.322;2022-07-10T11:06:47;19.10;99.90
11818;DHT22;5966;52.402;5.322;2022-07-10T11:09:24;19.10;99.90
11818;DHT22;5966;52.402;5.322;2022-07-10T11:11:59;19.10;99.90
11818;DHT22;5966;52.402;5.322;2022-07-10T11:14:28;19.10;99.90
11818;DHT22;5966;52.402;5.322;2022-07-10T11:16:57;19.20;99.90
11818;DHT22;5966;52.402;5.322;2022-07-10T11:19:26;19.20;99.90
11818;DHT22;5966;52.402;5.322;2022-07-10T11:22:43;19.30;99.90
11818;DHT22;5966;52.402;5.322;2022-07-10T11:25:39;19.30;99.90
11818;DHT22;5966;52.402;5.322;2022-07-10T11:28:12;19.40;99.90
11818;DHT22;5966;52.402;5.322;2022-07-10T11:30:49;19.50;99.90
11818;DHT22;5966;52.402;5.322;2022-07-10T11:33:19;19.50;99.90
11818;DHT22;5966;52.402;5.322;2022-07-10T11:35:49;19.60;99.90
11818;DHT22;5966;52.402;5.322;2022-07-10T11:38:21;19.60;99.90
11818;DHT22;5966;52.402;5.322;2022-07-10T11:40:51;19.60;99.90
11818;DHT22;5966;52.402;5.322;2022-07-10T11:43:21;19.60;99.90
11818;DHT22;5966;52.402;5.322;2022-07-10T11:45:51;19.70;99.90
11818;DHT22;5966;52.402;5.322;2022-07-10T11:48:22;19.70;99.90
11818;DHT22;5966;52.402;5.322;2022-07-10T11:50:54;19.70;99.90
11818;DHT22;5966;52.402;5.322;2022-07-10T11:53:23;19.80;99.90
11818;DHT22;5966;52.402;5.322;2022-07-10T11:55:52;19.80;99.90
11818;DHT22;5966;52.402;5.322;2022-07-10T11:58:21;19.70;99.90
11818;DHT22;5966;52.402;5.322;2022-07-10T12:01:01;19.70;99.90
11818;DHT22;5966;52.402;5.322;2022-07-10T12:03:31;19.60;99.90
11818;DHT22;5966;52.402;5.322;2022-07-10T12:06:06;19.60;99.90
11818;DHT22;5966;52.402;5.322;2022-07-10T12:08:44;19.60;99.90
11818;DHT22;5966;52.402;5.322;2022-07-10T12:11:15;19.50;99.90
11818;DHT22;5966;52.402;5.322;2022-07-10T12:13:45;19.50;99.90
11818;DHT22;5966;52.402;5.322;2022-07-10T12:16:14;19.50;99.90
11818;DHT22;5966;52.402;5.322;2022-07-10T12:18:43;19.50;99.90
11818;DHT22;5966;52.402;5.322;2022-07-10T12:21:13;19.60;99.90
11818;DHT22;5966;52.402;5.322;2022-07-10T12:23:43;19.60;99.90
11818;DHT22;5966;52.402;5.322;2022-07-10T12:26:17;19.70;99.90
11818;DHT22;5966;52.402;5.322;2022-07-10T12:28:55;19.70;99.90
11818;DHT22;5966;52.402;5.322;2022-07-10T12:31:25;19.80;99.90
11818;DHT22;5966;52.402;5.322;2022-07-10T12:33:56;19.90;99.90
11818;DHT22;5966;52.402;5.322;2022-07-10T12:36:47;19.90;99.90
11818;DHT22;5966;52.402;5.322;2022-07-10T12:39:18;20.00;99.90
11818;DHT22;5966;52.402;5.322;2022-07-10T12:42:01;20.10;99.90
11818;DHT22;5966;52.402;5.322;2022-07-10T12:44:39;20.20;99.90
11818;DHT22;5966;52.402;5.322;2022-07-10T12:47:11;20.20;99.90
11818;DHT22;5966;52.402;5.322;2022-07-10T12:49:54;20.30;99.90
11818;DHT22;5966;52.402;5.322;2022-07-10T12:52:24;20.30;99.90
11818;DHT22;5966;52.402;5.322;2022-07-10T12:55:08;20.30;99.90
11818;DHT22;5966;52.402;5.322;2022-07-10T12:57:52;20.30;99.90
11818;DHT22;5966;52.402;5.322;2022-07-10T13:00:22;20.30;99.90
11818;DHT22;5966;52.402;5.322;2022-07-10T13:02:57;20.20;99.90
11818;DHT22;5966;52.402;5.322;2022-07-10T13:05:27;20.30;99.90
11818;DHT22;5966;52.402;5.322;2022-07-10T13:08:07;20.20;99.90
11818;DHT22;5966;52.402;5.322;2022-07-10T13:10:39;20.20;99.90
11818;DHT22;5966;52.402;5.322;2022-07-10T13:13:10;20.20;99.90
11818;DHT22;5966;52.402;5.322;2022-07-10T13:15:39;20.20;99.90
11818;DHT22;5966;52.402;5.322;2022-07-10T13:18:13;20.20;99.90
11818;DHT22;5966;52.402;5.322;2022-07-10T13:20:42;20.30;99.90
11818;DHT22;5966;52.402;5.322;2022-07-10T13:23:10;20.30;99.90
11818;DHT22;5966;52.402;5.322;2022-07-10T13:25:39;20.30;99.90
11818;DHT22;5966;52.402;5.322;2022-07-10T13:28:08;20.40;99.90
11818;DHT22;5966;52.402;5.322;2022-07-10T13:30:41;20.40;99.90
11818;DHT22;5966;52.402;5.322;2022-07-10T13:33:10;20.40;99.90
11818;DHT22;5966;52.402;5.322;2022-07-10T13:35:40;20.40;99.90
11818;DHT22;5966;52.402;5.322;2022-07-10T13:38:09;20.40;99.90
11818;DHT22;5966;52.402;5.322;2022-07-10T13:40:43;20.40;99.90
11818;DHT22;5966;52.402;5.322;2022-07-10T13:43:11;20.50;99.90
11818;DHT22;5966;52.402;5.322;2022-07-10T13:45:43;20.50;99.90
11818;DHT22;5966;52.402;5.322;2022-07-10T13:48:11;20.40;99.90
11818;DHT22;5966;52.402;5.322;2022-07-10T13:50:43;20.30;99.90
11818;DHT22;5966;52.402;5.322;2022-07-10T13:53:13;20.30;99.90
11818;DHT22;5966;52.402;5.322;2022-07-10T13:55:42;20.30;99.90
11818;DHT22;5966;52.402;5.322;2022-07-10T13:58:11;20.30;99.90
11818;DHT22;5966;52.402;5.322;2022-07-10T14:00:39;20.40;99.90
11818;DHT22;5966;52.402;5.322;2022-07-10T14:03:09;20.40;99.90
11818;DHT22;5966;52.402;5.322;2022-07-10T14:05:37;20.40;99.90
11818;DHT22;5966;52.402;5.322;2022-07-10T14:08:08;20.50;99.90
11818;DHT22;5966;52.402;5.322;2022-07-10T14:10:37;20.50;99.90
11818;DHT22;5966;52.402;5.322;2022-07-10T14:13:05;20.60;99.90
11818;DHT22;5966;52.402;5.322;2022-07-10T14:15:38;20.70;99.90
11818;DHT22;5966;52.402;5.322;2022-07-10T14:18:08;20.80;99.90
11818;DHT22;5966;52.402;5.322;2022-07-10T14:20:37;20.80;99.90
11818;DHT22;5966;52.402;5.322;2022-07-10T14:23:22;20.80;99.90
11818;DHT22;5966;52.402;5.322;2022-07-10T14:25:59;20.80;99.90
11818;DHT22;5966;52.402;5.322;2022-07-10T14:28:27;20.60;99.90
11818;DHT22;5966;52.402;5.322;2022-07-10T14:30:57;20.60;99.90
11818;DHT22;5966;52.402;5.322;2022-07-10T14:33:33;20.50;99.90
11818;DHT22;5966;52.402;5.322;2022-07-10T14:36:03;20.60;99.90
11818;DHT22;5966;52.402;5.322;2022-07-10T14:38:31;20.60;99.90
11818;DHT22;5966;52.402;5.322;2022-07-10T14:43:38;20.50;99.90
11818;DHT22;5966;52.402;5.322;2022-07-10T14:46:06;20.50;99.90
11818;DHT22;5966;52.402;5.322;2022-07-10T14:48:50;20.50;99.90
11818;DHT22;5966;52.402;5.322;2022-07-10T14:51:22;20.50;99.90
11818;DHT22;5966;52.402;5.322;2022-07-10T14:53:53;20.40;99.90
11818;DHT22;5966;52.402;5.322;2022-07-10T14:56:24;20.30;99.90
11818;DHT22;5966;52.402;5.322;2022-07-10T14:58:52;20.30;99.90
11818;DHT22;5966;52.402;5.322;2022-07-10T15:01:40;20.30;99.90
11818;DHT22;5966;52.402;5.322;2022-07-10T15:04:10;20.30;99.90
11818;DHT22;5966;52.402;5.322;2022-07-10T15:06:39;20.30;99.90
11818;DHT22;5966;52.402;5.322;2022-07-10T15:09:07;20.30;99.90
11818;DHT22;5966;52.402;5.322;2022-07-10T15:11:38;20.30;99.90
11818;DHT22;5966;52.402;5.322;2022-07-10T15:14:07;20.30;99.90
11818;DHT22;5966;52.402;5.322;2022-07-10T15:16:36;20.30;99.90
11818;DHT22;5966;52.402;5.322;2022-07-10T15:19:05;20.30;99.90
11818;DHT22;5966;52.402;5.322;2022-07-10T15:21:37;20.30;99.90
11818;DHT22;5966;52.402;5.322;2022-07-10T15:24:06;20.30;99.90
11818;DHT22;5966;52.402;5.322;2022-07-10T15:26:38;20.30;99.90
11818;DHT22;5966;52.402;5.322;2022-07-10T15:29:07;20.20;99.90
11818;DHT22;5966;52.402;5.322;2022-07-10T15:31:36;20.20;99.90
11818;DHT22;5966;52.402;5.322;2022-07-10T15:34:07;20.20;99.90
11818;DHT22;5966;52.402;5.322;2022-07-10T15:36:37;20.10;99.90
11818;DHT22;5966;52.402;5.322;2022-07-10T15:39:05;20.10;99.90
11818;DHT22;5966;52.402;5.322;2022-07-10T15:41:34;20.10;99.90
11818;DHT22;5966;52.402;5.322;2022-07-10T15:44:02;20.20;99.90
11818;DHT22;5966;52.402;5.322;2022-07-10T15:46:30;20.20;99.90
11818;DHT22;5966;52.402;5.322;2022-07-10T15:48:58;20.20;99.90
11818;DHT22;5966;52.402;5.322;2022-07-10T15:51:27;20.10;99.90
11818;DHT22;5966;52.402;5.322;2022-07-10T15:53:57;20.10;99.90
11818;DHT22;5966;52.402;5.322;2022-07-10T15:56:25;20.00;99.90
11818;DHT22;5966;52.402;5.322;2022-07-10T15:58:53;20.00;99.90
11818;DHT22;5966;52.402;5.322;2022-07-10T16:01:21;20.00;99.90
11818;DHT22;5966;52.402;5.322;2022-07-10T16:03:49;20.10;99.90
11818;DHT22;5966;52.402;5.322;2022-07-10T16:06:25;20.10;99.90
11818;DHT22;5966;52.402;5.322;2022-07-10T16:08:55;20.10;99.90
11818;DHT22;5966;52.402;5.322;2022-07-10T16:11:26;20.10;99.90